createdAt,value
2019-01-12T00:01:52.730Z,73.80
2019-01-12T00:07:28.790Z,74.40
2019-01-12T00:09:57.635Z,74.60
2019-01-12T00:12:38.423Z,74.50
2019-01-12T00:15:28.394Z,74.30
2019-01-12T00:21:07.414Z,74.10
2019-01-12T00:23:36.526Z,73.70
2019-01-12T00:26:09.159Z,74.00
2019-01-12T00:28:45.794Z,73.90
2019-01-12T00:31:22.472Z,74.00
2019-01-12T00:34:06.869Z,73.80
2019-01-12T00:36:33.780Z,73.90
2019-01-12T00:39:23.731Z,73.60
2019-01-12T00:45:14.392Z,73.70
2019-01-12T00:47:41.117Z,73.80
2019-01-12T00:50:10.942Z,73.70
2019-01-12T00:52:50.335Z,73.70
2019-01-12T00:55:26.003Z,73.80
2019-01-12T00:57:59.610Z,73.90
2019-01-12T01:00:50.751Z,74.10
2019-01-12T01:06:48.280Z,74.30
2019-01-12T01:09:15.103Z,74.50
2019-01-12T01:12:03.114Z,74.40
2019-01-12T01:15:02.018Z,74.50
2019-01-12T01:17:42.075Z,74.60
2019-01-12T01:20:38.578Z,74.80
2019-01-12T01:23:10.002Z,74.70
2019-01-12T01:26:16.692Z,74.70
2019-01-12T01:32:08.226Z,74.50
2019-01-12T01:34:37.257Z,74.70
2019-01-12T01:37:25.330Z,75.20
2019-01-12T01:40:11.477Z,74.60
2019-01-12T01:42:42.030Z,74.60
2019-01-12T01:45:33.254Z,75.00
2019-01-12T01:50:49.769Z,75.10
2019-01-12T01:53:23.648Z,75.40
2019-01-12T01:55:51.946Z,75.30
2019-01-12T01:58:27.731Z,75.40
2019-01-12T02:01:00.406Z,75.60
2019-01-12T02:03:31.823Z,75.50
2019-01-12T02:06:02.114Z,75.40
2019-01-12T02:08:42.367Z,75.40
2019-01-12T02:11:33.311Z,75.50
2019-01-12T02:13:59.948Z,75.50
2019-01-12T02:16:26.880Z,75.40
2019-01-12T02:19:05.394Z,75.80
2019-01-12T02:21:40.153Z,76.10
2019-01-12T02:24:10.879Z,76.10
2019-01-12T02:27:03.623Z,76.00
2019-01-12T02:29:38.472Z,75.90
2019-01-12T02:32:13.319Z,76.10
2019-01-12T02:34:42.672Z,76.30
2019-01-12T02:37:30.752Z,76.30
2019-01-12T02:40:17.639Z,76.70
2019-01-12T02:43:01.313Z,77.00
2019-01-12T02:45:39.064Z,77.10
2019-01-12T02:48:09.239Z,77.20
2019-01-12T02:50:36.101Z,77.20
2019-01-12T02:53:18.497Z,77.10
2019-01-12T02:55:57.672Z,77.60
2019-01-12T02:58:48.622Z,77.50
2019-01-12T03:01:15.355Z,77.40
2019-01-12T03:03:51.233Z,77.10
2019-01-12T03:06:53.582Z,76.90
2019-01-12T03:12:25.696Z,76.90
2019-01-12T03:15:11.840Z,77.10
2019-01-12T03:17:58.160Z,77.00
2019-01-12T03:20:36.357Z,76.80
2019-01-12T03:23:45.426Z,77.00
2019-01-12T03:26:09.379Z,77.20
2019-01-12T03:28:38.034Z,77.20
2019-01-12T03:31:09.788Z,77.40
2019-01-12T03:39:37.731Z,77.40
2019-01-12T03:42:04.730Z,77.50
2019-01-12T03:44:46.221Z,77.30
2019-01-12T03:47:36.983Z,77.50
2019-01-12T03:50:09.707Z,77.60
2019-01-12T03:55:46.765Z,78.10
2019-01-12T03:58:26.315Z,78.10
2019-01-12T04:01:02.177Z,78.90
2019-01-12T04:03:41.772Z,78.40
2019-01-12T04:06:24.320Z,78.40
2019-01-12T04:08:48.638Z,78.30
2019-01-12T04:11:29.073Z,78.20
2019-01-12T04:14:33.816Z,78.50
2019-01-12T04:16:55.330Z,78.60
2019-01-12T04:19:27.613Z,78.70
2019-01-12T04:21:55.941Z,78.70
2019-01-12T04:24:39.440Z,78.80
2019-01-12T04:27:09.373Z,78.80
2019-01-12T04:29:45.965Z,78.80
2019-01-12T04:32:17.276Z,79.20
2019-01-12T04:34:46.755Z,79.60
2019-01-12T04:37:20.500Z,79.20
2019-01-12T04:39:47.300Z,79.10
2019-01-12T04:42:16.649Z,79.20
2019-01-12T04:44:55.276Z,79.20
2019-01-12T04:47:36.088Z,79.20
2019-01-12T04:50:00.202Z,78.90
2019-01-12T04:52:27.012Z,79.20
2019-01-12T04:55:15.895Z,79.60
2019-01-12T04:57:44.452Z,79.10
2019-01-12T05:00:24.517Z,79.10
2019-01-12T05:02:57.441Z,79.20
2019-01-12T05:05:55.526Z,79.10
2019-01-12T05:08:24.403Z,79.00
2019-01-12T05:10:58.147Z,79.20
2019-01-12T05:13:24.969Z,79.00
2019-01-12T05:16:04.474Z,79.50
2019-01-12T05:18:33.762Z,79.40
2019-01-12T05:21:06.564Z,79.70
2019-01-12T05:23:37.560Z,79.60
2019-01-12T05:29:22.569Z,79.50
2019-01-12T05:37:48.180Z,79.70
2019-01-12T05:40:34.376Z,79.20
2019-01-12T05:43:28.849Z,79.70
2019-01-12T05:46:17.116Z,80.00
2019-01-12T05:48:56.518Z,79.40
2019-01-12T05:51:47.532Z,80.10
2019-01-12T05:54:25.302Z,80.80
2019-01-12T05:57:00.342Z,82.50
2019-01-12T05:59:40.223Z,80.00
2019-01-12T06:02:21.395Z,80.40
2019-01-12T06:04:52.618Z,80.10
2019-01-12T06:07:33.713Z,80.40
2019-01-12T06:10:07.345Z,80.70
2019-01-12T06:12:36.828Z,80.70
2019-01-12T06:15:19.354Z,81.10
2019-01-12T06:17:49.403Z,81.50
2019-01-12T06:23:22.011Z,81.70
2019-01-12T06:26:04.288Z,82.10
2019-01-12T06:28:33.178Z,82.30
2019-01-12T06:31:04.687Z,82.00
2019-01-12T06:36:54.317Z,83.00
2019-01-12T06:40:13.089Z,82.80
2019-01-12T06:42:40.906Z,82.70
2019-01-12T06:45:16.222Z,82.70
2019-01-12T06:47:45.937Z,82.60
2019-01-12T06:50:53.448Z,82.70
2019-01-12T06:53:25.903Z,82.70
2019-01-12T06:56:01.683Z,82.70
2019-01-12T06:58:45.261Z,82.60
2019-01-12T07:01:11.894Z,82.80
2019-01-12T07:03:41.333Z,82.70
2019-01-12T07:06:13.429Z,82.50
2019-01-12T07:08:46.411Z,82.80
2019-01-12T07:11:13.317Z,82.90
2019-01-12T07:13:41.899Z,83.10
2019-01-12T07:16:08.640Z,83.10
2019-01-12T07:18:39.255Z,83.10
2019-01-12T07:21:13.017Z,82.90
2019-01-12T07:23:42.255Z,83.20
2019-01-12T07:26:34.600Z,83.20
2019-01-12T07:29:17.266Z,83.10
2019-01-12T07:32:08.214Z,83.30
2019-01-12T07:34:44.017Z,83.00
2019-01-12T07:40:31.728Z,82.70
2019-01-12T07:43:12.449Z,82.80
2019-01-12T07:46:00.410Z,83.30
2019-01-12T07:48:45.086Z,83.70
2019-01-12T07:51:22.205Z,83.70
2019-01-12T07:54:07.432Z,83.80
2019-01-12T07:57:13.490Z,83.90
2019-01-12T07:59:42.103Z,84.10
2019-01-12T08:02:17.884Z,84.20
2019-01-12T08:04:50.735Z,84.50
2019-01-12T08:07:20.090Z,84.70
2019-01-12T08:09:48.674Z,84.70
2019-01-12T08:12:17.426Z,85.00
2019-01-12T08:14:44.127Z,84.90
2019-01-12T08:17:18.681Z,84.80
2019-01-12T08:19:45.423Z,85.00
2019-01-12T08:22:12.128Z,84.90
2019-01-12T08:24:46.186Z,84.90
2019-01-12T08:27:20.373Z,85.30
2019-01-12T08:29:49.948Z,85.30
2019-01-12T08:32:20.088Z,85.60
2019-01-12T08:34:54.027Z,85.30
2019-01-12T08:37:26.652Z,85.40
2019-01-12T08:40:02.718Z,85.50
2019-01-12T08:42:57.666Z,85.60
2019-01-12T08:45:37.723Z,85.50
2019-01-12T08:48:25.831Z,85.70
2019-01-12T08:56:54.177Z,85.80
2019-01-12T09:04:56.751Z,85.20
2019-01-12T09:07:23.737Z,85.00
2019-01-12T09:09:50.641Z,85.30
2019-01-12T09:13:03.216Z,85.40
2019-01-12T09:15:33.132Z,85.50
2019-01-12T09:18:26.304Z,85.60
2019-01-12T09:20:54.642Z,85.20
2019-01-12T09:23:29.572Z,85.60
2019-01-12T09:25:56.362Z,86.00
2019-01-12T09:28:27.730Z,85.10
2019-01-12T09:31:03.095Z,85.10
2019-01-12T09:33:29.743Z,85.20
2019-01-12T09:36:07.929Z,84.60
2019-01-12T09:38:34.652Z,84.40
2019-01-12T09:41:01.468Z,84.30
2019-01-12T09:43:30.523Z,84.30
2019-01-12T09:45:59.947Z,84.00
2019-01-12T09:48:54.296Z,83.80
2019-01-12T09:51:20.983Z,84.00
2019-01-12T09:53:50.234Z,83.60
2019-01-12T09:56:22.091Z,83.10
2019-01-12T09:59:08.240Z,83.00
2019-01-12T10:02:04.183Z,82.70
2019-01-12T10:04:34.558Z,82.80
2019-01-12T10:07:06.128Z,82.90
2019-01-12T10:09:44.031Z,82.80
2019-01-12T10:15:21.747Z,82.70
2019-01-12T10:18:09.746Z,82.70
2019-01-12T10:20:50.223Z,82.70
2019-01-12T10:23:28.151Z,82.60
2019-01-12T10:26:32.987Z,82.80
2019-01-12T10:29:09.816Z,82.90
2019-01-12T10:31:56.134Z,83.40
2019-01-12T10:38:02.574Z,82.70
2019-01-12T10:41:17.129Z,82.80
2019-01-12T10:44:05.194Z,82.70
2019-01-12T10:46:39.791Z,82.80
2019-01-12T10:49:14.381Z,82.20
2019-01-12T10:51:44.264Z,82.30
2019-01-12T10:54:25.537Z,82.50
2019-01-12T10:56:55.045Z,82.50
2019-01-12T10:59:26.968Z,82.10
2019-01-12T11:01:58.566Z,81.90
2019-01-12T11:04:45.248Z,81.80
2019-01-12T11:07:41.790Z,81.60
2019-01-12T11:10:11.234Z,81.40
2019-01-12T11:12:45.433Z,81.40
2019-01-12T11:15:17.876Z,81.60
2019-01-12T11:17:45.764Z,81.30
2019-01-12T11:20:37.136Z,81.70
2019-01-12T11:25:59.635Z,81.60
2019-01-12T11:28:26.477Z,81.60
2019-01-12T11:30:59.327Z,81.40
2019-01-12T11:33:29.943Z,80.50
2019-01-12T11:35:56.706Z,80.50
2019-01-12T11:38:28.647Z,80.40
2019-01-12T11:41:00.024Z,80.50
2019-01-12T11:43:32.580Z,80.40
2019-01-12T11:46:18.872Z,80.50
2019-01-12T11:49:15.735Z,80.10
2019-01-12T11:51:44.779Z,80.00
2019-01-12T11:54:11.693Z,79.90
2019-01-12T11:56:40.423Z,80.00
2019-01-12T11:59:07.326Z,79.90
2019-01-12T12:01:53.178Z,80.30
2019-01-12T12:04:54.607Z,80.10
2019-01-12T12:07:25.813Z,80.00
2019-01-12T12:10:11.188Z,80.20
2019-01-12T12:12:44.152Z,79.70
2019-01-12T12:15:32.327Z,79.90
2019-01-12T12:18:13.718Z,80.30
2019-01-12T12:20:43.503Z,79.80
2019-01-12T12:23:16.428Z,79.70
2019-01-12T12:25:58.766Z,79.70
2019-01-12T12:28:33.295Z,80.10
2019-01-12T12:31:00.170Z,80.20
2019-01-12T12:33:26.903Z,80.30
2019-01-12T12:35:55.537Z,80.50
2019-01-12T12:38:24.262Z,80.70
2019-01-12T12:40:55.348Z,80.90
2019-01-12T12:43:26.022Z,81.20
2019-01-12T12:45:54.675Z,81.40
2019-01-12T12:48:23.006Z,81.50
2019-01-12T12:50:53.381Z,81.70
2019-01-12T12:53:44.847Z,81.90
2019-01-12T12:56:31.262Z,81.40
2019-01-12T12:59:16.028Z,81.80
2019-01-12T13:01:50.420Z,82.30
2019-01-12T13:04:21.129Z,82.10
2019-01-12T13:07:07.549Z,82.00
2019-01-12T13:09:37.861Z,82.00
2019-01-12T13:12:23.061Z,82.80
2019-01-12T13:14:51.622Z,81.80
2019-01-12T13:20:53.418Z,82.20
2019-01-12T13:23:23.815Z,82.00
2019-01-12T13:25:50.511Z,82.90
2019-01-12T13:28:20.049Z,82.90
2019-01-12T13:30:49.116Z,82.90
2019-01-12T13:33:15.869Z,83.50
2019-01-12T13:35:44.567Z,83.50
2019-01-12T13:38:11.437Z,83.10
2019-01-12T13:40:47.457Z,83.80
2019-01-12T13:43:20.055Z,83.60
2019-01-12T13:45:53.627Z,83.60
2019-01-12T13:48:25.412Z,83.80
2019-01-12T13:51:05.006Z,84.10
2019-01-12T13:53:41.335Z,83.80
2019-01-12T13:56:25.184Z,84.20
2019-01-12T13:58:49.663Z,84.20
2019-01-12T14:01:22.798Z,84.20
2019-01-12T14:04:03.199Z,84.40
2019-01-12T14:06:30.306Z,85.00
2019-01-12T14:08:59.713Z,85.10
2019-01-12T14:11:45.836Z,85.40
2019-01-12T14:14:32.147Z,84.90
2019-01-12T14:19:01.330Z,85.20
2019-01-12T14:20:38.355Z,85.60
2019-01-12T14:26:34.606Z,85.90
2019-01-12T14:29:22.369Z,86.30
2019-01-12T14:32:30.457Z,86.90
2019-01-12T14:34:57.380Z,86.80
2019-01-12T14:40:41.930Z,87.10
2019-01-12T14:43:31.903Z,87.10
2019-01-12T14:46:18.124Z,86.80
2019-01-12T14:52:21.609Z,87.30
2019-01-12T14:54:53.698Z,87.30
2019-01-12T14:58:02.957Z,87.30
2019-01-12T15:00:34.717Z,87.60
2019-01-12T15:03:05.045Z,87.50
2019-01-12T15:05:51.582Z,87.70
2019-01-12T15:11:34.088Z,88.00
2019-01-12T15:14:29.332Z,88.10
2019-01-12T15:16:58.190Z,88.60
2019-01-12T15:19:27.050Z,88.00
2019-01-12T15:22:22.150Z,88.40
2019-01-12T15:25:05.569Z,88.50
2019-01-12T15:27:39.410Z,88.00
2019-01-12T15:30:35.711Z,88.40
2019-01-12T15:33:13.296Z,88.60
2019-01-12T15:35:51.283Z,88.50
2019-01-12T15:38:42.700Z,88.70
2019-01-12T15:41:32.823Z,88.60
2019-01-12T15:44:06.222Z,88.70
2019-01-12T15:46:37.263Z,89.10
2019-01-12T15:49:21.580Z,89.30
2019-01-12T15:52:13.335Z,89.10
2019-01-12T15:54:40.303Z,89.00
2019-01-12T15:57:06.931Z,88.80
2019-01-12T15:59:42.602Z,89.00
2019-01-12T16:07:30.335Z,90.00
2019-01-12T16:10:01.644Z,89.50
2019-01-12T16:12:29.443Z,89.20
2019-01-12T16:14:58.668Z,89.60
2019-01-12T16:17:31.704Z,89.60
2019-01-12T16:20:05.868Z,90.00
2019-01-12T16:23:13.604Z,89.70
2019-01-12T16:25:38.890Z,89.70
2019-01-12T16:28:11.082Z,90.00
2019-01-12T16:31:09.726Z,90.10
2019-01-12T16:33:55.890Z,90.10
2019-01-12T16:36:22.743Z,90.20
2019-01-12T16:39:01.456Z,90.00
2019-01-12T16:48:05.592Z,90.00
2019-01-12T16:51:03.564Z,90.10
2019-01-12T16:53:35.743Z,90.00
2019-01-12T16:56:02.391Z,90.00
2019-01-12T16:58:34.347Z,90.10
2019-01-12T17:04:16.439Z,90.20
2019-01-12T17:06:55.515Z,90.20
2019-01-12T17:09:41.662Z,90.20
2019-01-12T17:12:31.447Z,90.20
2019-01-12T17:15:08.174Z,90.00
2019-01-12T17:18:03.636Z,90.50
2019-01-12T17:20:26.990Z,90.30
2019-01-12T17:23:00.430Z,90.20
2019-01-12T17:28:50.174Z,90.00
2019-01-12T17:31:17.066Z,90.10
2019-01-12T17:33:56.480Z,90.30
2019-01-12T17:36:27.895Z,90.30
2019-01-12T17:39:25.551Z,90.40
2019-01-12T17:41:48.468Z,90.50
2019-01-12T17:44:34.006Z,90.60
2019-01-12T17:47:07.527Z,90.80
2019-01-12T17:50:04.507Z,90.80
2019-01-12T17:52:50.861Z,90.70
2019-01-12T17:55:23.934Z,90.80
2019-01-12T18:01:11.502Z,90.80
2019-01-12T18:03:40.540Z,90.80
2019-01-12T18:06:31.764Z,90.80
2019-01-12T18:09:31.485Z,90.90
2019-01-12T18:12:13.749Z,90.80
2019-01-12T18:14:50.126Z,90.90
2019-01-12T18:20:33.918Z,90.90
2019-01-12T18:23:24.554Z,90.90
2019-01-12T18:26:12.868Z,90.90
2019-01-12T18:28:58.768Z,90.90
2019-01-12T18:36:40.933Z,91.40
2019-01-12T18:45:05.851Z,91.10
2019-01-12T18:51:18.025Z,91.20
2019-01-12T18:53:51.165Z,91.40
2019-01-12T18:56:49.930Z,91.60
2019-01-12T18:59:48.856Z,91.30
2019-01-12T19:02:20.413Z,91.30
2019-01-12T19:04:58.013Z,91.60
2019-01-12T19:08:17.939Z,91.50
2019-01-12T19:10:42.986Z,91.70
2019-01-12T19:13:48.379Z,91.80
2019-01-12T19:19:55.759Z,92.30
2019-01-12T19:22:33.958Z,92.50
2019-01-12T19:25:00.704Z,92.60
2019-01-12T19:28:02.151Z,92.60
2019-01-12T19:30:55.399Z,92.40
2019-01-12T19:33:31.260Z,92.40
2019-01-12T19:36:06.904Z,92.40
2019-01-12T19:38:46.359Z,92.40
2019-01-12T19:41:15.281Z,92.30
2019-01-12T19:46:41.275Z,92.20
2019-01-12T19:49:08.044Z,92.10
2019-01-12T19:51:34.910Z,92.10
2019-01-12T19:54:42.774Z,92.30
2019-01-12T20:00:38.206Z,92.10
2019-01-12T20:03:24.132Z,92.10
2019-01-12T20:06:18.102Z,92.40
2019-01-12T20:11:55.044Z,92.20
2019-01-12T20:18:00.083Z,92.30
2019-01-12T20:20:26.866Z,92.40
2019-01-12T20:23:16.369Z,92.50
2019-01-12T20:25:47.391Z,92.30
2019-01-12T20:28:23.782Z,92.30
2019-01-12T20:34:23.708Z,92.60
2019-01-12T20:39:59.199Z,92.40
2019-01-12T20:43:13.526Z,92.30
2019-01-12T20:49:05.043Z,92.60
2019-01-12T20:52:34.115Z,92.60
2019-01-12T20:55:25.555Z,92.70
2019-01-12T20:58:50.534Z,92.90
2019-01-12T21:05:06.984Z,93.50
2019-01-12T21:07:57.341Z,93.80
2019-01-12T21:10:45.434Z,93.90
2019-01-12T21:13:48.362Z,94.20
2019-01-12T21:16:15.750Z,94.60
2019-01-12T21:24:55.427Z,94.10
2019-01-12T21:27:37.063Z,93.90
2019-01-12T21:30:22.819Z,93.70
2019-01-12T21:39:18.994Z,93.90
2019-01-12T21:42:15.005Z,93.80
2019-01-12T21:44:46.693Z,93.90
2019-01-12T21:47:13.380Z,93.80
2019-01-12T21:49:40.088Z,94.00
2019-01-12T22:04:10.255Z,94.50
2019-01-12T22:06:36.918Z,94.70
2019-01-12T22:09:06.795Z,94.90
2019-01-12T22:11:33.553Z,94.80
2019-01-12T22:14:23.447Z,94.90
2019-01-12T22:16:59.934Z,94.80
2019-01-12T22:29:17.562Z,95.30
2019-01-12T22:32:16.794Z,95.30
2019-01-12T22:36:18.313Z,95.30
2019-01-12T22:37:55.232Z,95.50
2019-01-12T22:43:43.704Z,95.50
2019-01-12T22:46:40.882Z,95.90
2019-01-12T22:49:20.308Z,95.60
2019-01-12T22:52:19.322Z,95.50
2019-01-12T22:55:22.414Z,95.70
2019-01-12T23:01:02.441Z,96.00
2019-01-12T23:03:52.272Z,95.80
2019-01-12T23:16:06.264Z,96.50
2019-01-12T23:18:33.075Z,96.70
2019-01-12T23:23:49.657Z,96.80
2019-01-12T23:26:16.333Z,96.90
2019-01-12T23:28:42.993Z,97.00
2019-01-12T23:31:32.564Z,97.00
2019-01-12T23:34:02.866Z,97.00
2019-01-12T23:36:45.423Z,97.00
2019-01-12T23:39:21.335Z,97.20
2019-01-12T23:45:45.077Z,97.70
2019-01-12T23:48:37.708Z,97.80
2019-01-12T23:51:17.744Z,97.90
2019-01-12T23:53:44.834Z,98.00
